Time;durP1;ratioP1;P1;durP2;ratioP2;P2;SDS_P1;SDS_P2;PMS_P1;PMS_P2;Temp;Humidity;BMP_temperature;BMP_pressure;BME280_temperature;BME280_humidity;BME280_pressure;Samples;Min_cycle;Max_cycle;Signal;HPM_P1;HPM_P2
2023/09/02 00:02:22;;;;;;;28.15;18.38;;;17.90;99.90;;;;;;5029692;28;20021;-75
2023/09/02 00:04:48;;;;;;;35.75;18.98;;;18.00;99.90;;;;;;5030118;28;20041;-76
2023/09/02 00:07:14;;;;;;;30.75;18.98;;;18.00;99.90;;;;;;5030026;28;20765;-77
2023/09/02 00:09:40;;;;;;;32.92;19.27;;;18.00;99.90;;;;;;5030274;28;20071;-76
2023/09/02 00:12:06;;;;;;;27.58;17.63;;;18.00;99.90;;;;;;5030985;28;20029;-77
2023/09/02 00:14:33;;;;;;;27.08;17.38;;;18.00;99.90;;;;;;5029471;28;20025;-76
2023/09/02 00:16:58;;;;;;;25.98;16.55;;;18.10;99.90;;;;;;5030616;28;20124;-77
2023/09/02 00:19:24;;;;;;;27.50;18.15;;;18.10;99.90;;;;;;5030033;28;20164;-76
2023/09/02 00:21:50;;;;;;;31.05;19.88;;;18.10;99.90;;;;;;5030706;28;20030;-76
2023/09/02 00:24:16;;;;;;;31.17;20.27;;;18.00;99.90;;;;;;5030195;28;20025;-76
2023/09/02 00:26:42;;;;;;;28.63;20.23;;;17.90;99.90;;;;;;5030334;28;20033;-76
2023/09/02 00:29:07;;;;;;;28.05;19.10;;;17.90;99.90;;;;;;5030160;28;20029;-77
2023/09/02 00:31:34;;;;;;;29.10;19.10;;;17.90;99.90;;;;;;5012229;28;20029;-77
2023/09/02 00:33:59;;;;;;;22.98;14.63;;;17.80;99.90;;;;;;5030200;28;20392;-77
2023/09/02 00:36:27;;;;;;;22.23;14.75;;;17.70;99.90;;;;;;5012435;28;20083;-76
2023/09/02 00:38:53;;;;;;;25.95;16.20;;;17.60;99.90;;;;;;5026960;28;20119;-77
2023/09/02 00:41:28;;;;;;;27.25;20.23;;;17.50;99.90;;;;;;5030195;28;20018;-77
2023/09/02 00:43:56;;;;;;;31.05;21.20;;;17.50;99.90;;;;;;5011957;28;20125;-75
2023/09/02 00:46:23;;;;;;;29.65;22.02;;;17.50;99.90;;;;;;5012951;28;20096;-77
2023/09/02 00:48:48;;;;;;;29.33;21.65;;;17.60;99.90;;;;;;5012190;28;20033;-76
2023/09/02 00:51:14;;;;;;;29.80;22.85;;;17.60;99.90;;;;;;5029975;28;20104;-76
2023/09/02 00:53:40;;;;;;;28.15;21.27;;;17.60;99.90;;;;;;5029821;28;20018;-77
2023/09/02 00:56:07;;;;;;;31.13;21.70;;;17.60;99.90;;;;;;5011449;28;20029;-77
2023/09/02 00:58:34;;;;;;;26.95;20.67;;;17.50;99.90;;;;;;5029308;28;20088;-76
2023/09/02 01:01:03;;;;;;;29.50;21.10;;;17.50;99.90;;;;;;5030101;28;20033;-76
2023/09/02 01:03:29;;;;;;;31.20;23.73;;;17.40;99.90;;;;;;5011992;28;20024;-76
2023/09/02 01:05:55;;;;;;;28.63;21.67;;;17.40;99.90;;;;;;5029980;28;20025;-76
2023/09/02 01:08:21;;;;;;;30.55;22.20;;;17.40;99.90;;;;;;5033033;28;20044;-77
2023/09/02 01:10:48;;;;;;;28.17;19.95;;;17.40;99.90;;;;;;5015554;28;20021;-76
2023/09/02 01:13:14;;;;;;;32.30;21.30;;;17.30;99.90;;;;;;5015060;28;20049;-76
2023/09/02 01:15:40;;;;;;;30.27;23.23;;;17.20;99.90;;;;;;5015753;28;20063;-76
2023/09/02 01:18:06;;;;;;;30.63;24.25;;;17.10;99.90;;;;;;5016022;28;20033;-76
2023/09/02 01:20:57;;;;;;;31.42;23.42;;;17.00;99.90;;;;;;5015790;28;20029;-76
2023/09/02 01:23:47;;;;;;;39.72;29.15;;;17.00;99.90;;;;;;4992308;28;20043;-77
2023/09/02 01:26:50;;;;;;;34.50;24.88;;;17.00;99.90;;;;;;4965334;28;20030;-77
2023/09/02 01:29:20;;;;;;;31.80;22.02;;;17.00;99.90;;;;;;4991825;28;20035;-76
2023/09/02 01:31:52;;;;;;;39.00;30.95;;;17.00;99.90;;;;;;4971114;28;20086;-77
2023/09/02 01:34:19;;;;;;;35.70;27.13;;;17.00;99.90;;;;;;4991409;28;20113;-77
2023/09/02 01:36:50;;;;;;;34.83;25.95;;;17.00;99.90;;;;;;4994238;28;20054;-77
2023/09/02 01:39:20;;;;;;;35.35;27.25;;;17.00;99.90;;;;;;4992066;28;20617;-77
2023/09/02 01:41:48;;;;;;;38.33;27.63;;;17.00;99.90;;;;;;4991950;28;20062;-77
2023/09/02 01:44:14;;;;;;;37.75;28.73;;;17.10;99.90;;;;;;4973348;28;20035;-77
2023/09/02 01:46:41;;;;;;;41.30;29.77;;;17.10;99.90;;;;;;4991798;28;20081;-77
2023/09/02 01:49:09;;;;;;;39.45;30.45;;;17.20;99.90;;;;;;4990790;28;20035;-77
2023/09/02 01:51:35;;;;;;;39.08;28.27;;;17.20;99.90;;;;;;4949511;28;20041;-77
2023/09/02 01:54:01;;;;;;;37.45;28.70;;;17.10;99.90;;;;;;4974468;28;20125;-77
2023/09/02 01:56:27;;;;;;;38.08;28.27;;;17.10;99.90;;;;;;4967674;28;20983;-77
2023/09/02 01:58:53;;;;;;;37.65;25.70;;;17.20;99.90;;;;;;4973894;28;20031;-76
2023/09/02 02:01:19;;;;;;;38.33;28.48;;;17.20;99.90;;;;;;5009030;28;20859;-76
2023/09/02 02:04:09;;;;;;;37.70;27.65;;;17.20;99.90;;;;;;5033138;28;20119;-77
2023/09/02 02:06:38;;;;;;;38.20;27.95;;;17.20;99.90;;;;;;4939811;29;20059;-76
2023/09/02 02:09:15;;;;;;;42.22;28.63;;;17.10;99.90;;;;;;4934159;28;20027;-76
2023/09/02 02:11:42;;;;;;;34.08;24.52;;;17.20;99.90;;;;;;4952395;29;20066;-77
2023/09/02 02:14:08;;;;;;;32.75;26.08;;;17.10;99.90;;;;;;4926749;29;20027;-77
2023/09/02 02:16:34;;;;;;;53.58;30.42;;;17.10;99.90;;;;;;4926149;29;20116;-77
2023/09/02 02:19:00;;;;;;;39.50;28.85;;;17.00;99.90;;;;;;4927148;28;20483;-77
2023/09/02 02:21:27;;;;;;;33.92;25.02;;;17.10;99.90;;;;;;4952182;29;20554;-76
2023/09/02 02:23:53;;;;;;;34.20;27.05;;;17.00;99.90;;;;;;4952162;29;20495;-77
2023/09/02 02:26:19;;;;;;;30.25;22.88;;;17.00;99.90;;;;;;4951352;29;20067;-76
2023/09/02 02:28:45;;;;;;;29.65;22.65;;;17.00;99.90;;;;;;4952666;28;20031;-77
2023/09/02 02:31:10;;;;;;;37.95;26.42;;;17.00;99.90;;;;;;4952164;28;20031;-76
2023/09/02 02:33:37;;;;;;;39.75;27.73;;;16.90;99.90;;;;;;4954772;28;20438;-77
2023/09/02 02:36:03;;;;;;;38.95;29.02;;;16.90;99.90;;;;;;4923477;29;20126;-76
2023/09/02 02:38:29;;;;;;;38.63;27.05;;;16.90;99.90;;;;;;4952747;28;20031;-76
2023/09/02 02:40:55;;;;;;;36.42;27.45;;;16.90;99.90;;;;;;4952012;29;20506;-77
2023/09/02 02:43:26;;;;;;;36.13;28.58;;;16.90;99.90;;;;;;4982282;28;20033;-76
2023/09/02 02:45:53;;;;;;;41.15;28.75;;;16.90;99.90;;;;;;5031686;28;20107;-76
2023/09/02 02:48:24;;;;;;;40.70;30.00;;;16.90;99.90;;;;;;5020487;28;20030;-77
2023/09/02 02:50:50;;;;;;;40.67;28.60;;;16.90;99.90;;;;;;5033591;28;20108;-76
2023/09/02 02:53:16;;;;;;;32.58;23.48;;;16.90;99.90;;;;;;5011869;28;20117;-76
2023/09/02 02:55:42;;;;;;;32.03;22.27;;;16.80;99.90;;;;;;5025048;28;20053;-77
2023/09/02 02:58:08;;;;;;;32.85;22.27;;;16.80;99.90;;;;;;5033008;28;20034;-76
2023/09/02 03:00:34;;;;;;;34.67;25.77;;;16.80;99.90;;;;;;5015422;28;20030;-76
2023/09/02 03:03:03;;;;;;;39.50;27.25;;;16.70;99.90;;;;;;5032984;28;20021;-77
2023/09/02 03:05:39;;;;;;;38.00;28.20;;;16.80;99.90;;;;;;5015571;28;20037;-76
2023/09/02 03:08:07;;;;;;;37.60;28.15;;;16.70;99.90;;;;;;5031334;28;20041;-76
2023/09/02 03:10:35;;;;;;;40.05;26.52;;;16.70;99.90;;;;;;5015468;28;20025;-76
2023/09/02 03:13:05;;;;;;;39.70;28.80;;;16.60;99.90;;;;;;5033010;28;20017;-76
2023/09/02 03:15:32;;;;;;;40.85;29.75;;;16.60;99.90;;;;;;5015229;28;20048;-77
2023/09/02 03:17:58;;;;;;;39.50;28.95;;;16.60;99.90;;;;;;5015890;28;20028;-77
2023/09/02 03:20:26;;;;;;;45.78;28.63;;;16.60;99.90;;;;;;5024041;28;20114;-76
2023/09/02 03:22:52;;;;;;;37.28;28.42;;;16.60;99.90;;;;;;5035111;28;20485;-77
2023/09/02 03:25:18;;;;;;;33.38;25.77;;;16.50;99.90;;;;;;5014774;28;20029;-76
2023/09/02 03:27:45;;;;;;;37.65;27.02;;;16.40;99.90;;;;;;5021802;28;20137;-76
2023/09/02 03:30:11;;;;;;;36.38;27.17;;;16.40;99.90;;;;;;5014162;28;20366;-76
2023/09/02 03:32:37;;;;;;;35.03;25.10;;;16.30;99.90;;;;;;5014886;28;20115;-76
2023/09/02 03:35:07;;;;;;;35.25;26.55;;;16.30;99.90;;;;;;5015067;28;20121;-77
2023/09/02 03:37:34;;;;;;;32.40;25.25;;;16.30;99.90;;;;;;5014294;28;20504;-76
2023/09/02 03:40:00;;;;;;;37.45;25.30;;;16.30;99.90;;;;;;5014810;28;20029;-77
2023/09/02 03:42:26;;;;;;;32.17;23.88;;;16.30;99.90;;;;;;5032612;28;20037;-77
2023/09/02 03:44:51;;;;;;;32.47;23.92;;;16.30;99.90;;;;;;5032313;28;20045;-76
2023/09/02 03:47:18;;;;;;;32.85;23.95;;;16.40;99.90;;;;;;5031007;28;20053;-77
2023/09/02 03:49:46;;;;;;;29.88;20.75;;;16.40;99.90;;;;;;5014765;28;20062;-77
2023/09/02 03:52:12;;;;;;;31.48;21.52;;;16.30;99.90;;;;;;5032108;28;20380;-75
2023/09/02 03:54:38;;;;;;;30.77;21.45;;;16.30;99.90;;;;;;5032686;28;20022;-77
2023/09/02 03:57:05;;;;;;;33.83;24.60;;;16.30;99.90;;;;;;5014247;28;20539;-77
2023/09/02 03:59:31;;;;;;;31.25;23.60;;;16.20;99.90;;;;;;5014125;28;20044;-76
2023/09/02 04:01:57;;;;;;;31.55;21.80;;;16.30;99.90;;;;;;5032479;28;20037;-76
2023/09/02 04:04:24;;;;;;;29.83;20.63;;;16.40;99.90;;;;;;5032151;28;20426;-76
2023/09/02 04:06:50;;;;;;;28.85;21.58;;;16.30;99.90;;;;;;5014444;28;20045;-76
2023/09/02 04:09:16;;;;;;;29.20;20.73;;;16.30;99.90;;;;;;5031928;28;20100;-76
2023/09/02 04:11:44;;;;;;;31.35;21.73;;;;;;;;;;5032353;28;20415;-76
2023/09/02 04:14:10;;;;;;;32.05;20.52;;;16.50;99.90;;;;;;5012159;28;20370;-77
2023/09/02 04:16:35;;;;;;;25.67;19.63;;;16.80;99.90;;;;;;5012998;28;20068;-77
2023/09/02 04:19:03;;;;;;;30.13;19.92;;;16.90;99.90;;;;;;5010927;28;20034;-77
2023/09/02 04:21:30;;;;;;;26.88;19.48;;;17.30;99.90;;;;;;5004182;28;20362;-77
2023/09/02 04:23:56;;;;;;;28.00;21.15;;;17.60;99.90;;;;;;5014318;28;20112;-77
2023/09/02 04:26:22;;;;;;;27.60;19.42;;;17.90;99.90;;;;;;5013297;28;20453;-76
2023/09/02 04:28:49;;;;;;;31.23;20.23;;;18.30;99.90;;;;;;5013818;28;20124;-76
2023/09/02 04:31:17;;;;;;;27.73;18.35;;;17.90;99.90;;;;;;5010698;28;20021;-77
2023/09/02 04:33:43;;;;;;;23.50;16.92;;;18.30;99.90;;;;;;5007588;28;20112;-77
2023/09/02 04:36:09;;;;;;;29.35;19.08;;;18.60;99.90;;;;;;5008939;28;20029;-76
2023/09/02 04:38:41;;;;;;;26.87;18.67;;;18.30;99.90;;;;;;5031442;28;20470;-77
2023/09/02 04:41:07;;;;;;;23.23;15.90;;;19.20;99.90;;;;;;5006927;28;20262;-76
2023/09/02 04:43:34;;;;;;;23.75;15.88;;;19.90;99.90;;;;;;5013443;28;20075;-76
2023/09/02 04:46:02;;;;;;;21.67;14.00;;;20.50;99.90;;;;;;5012966;28;20048;-76
2023/09/02 04:48:29;;;;;;;23.73;14.77;;;21.00;99.90;;;;;;5012556;28;20041;-76
2023/09/02 04:50:56;;;;;;;20.73;12.98;;;21.30;99.90;;;;;;5028594;28;20030;-76
2023/09/02 04:53:24;;;;;;;21.63;13.10;;;21.80;99.90;;;;;;5013250;28;20034;-76
2023/09/02 04:55:51;;;;;;;19.27;12.13;;;22.20;99.20;;;;;;5013966;28;20037;-76
2023/09/02 04:58:20;;;;;;;17.80;12.07;;;22.30;98.80;;;;;;5013639;28;20021;-76
2023/09/02 05:00:48;;;;;;;18.08;12.23;;;;;;;;;;5013675;28;20029;-76
2023/09/02 05:03:14;;;;;;;16.80;11.70;;;22.90;99.90;;;;;;5006717;28;20017;-77
2023/09/02 05:05:41;;;;;;;20.50;11.95;;;23.20;96.50;;;;;;5031289;28;20110;-76
2023/09/02 05:08:10;;;;;;;19.27;13.57;;;23.70;95.80;;;;;;5012032;28;20029;-76
2023/09/02 05:10:37;;;;;;;23.55;13.65;;;23.90;94.80;;;;;;5002760;28;20018;-76
2023/09/02 05:13:04;;;;;;;21.98;14.10;;;24.30;94.00;;;;;;5010896;28;20511;-76
2023/09/02 05:15:31;;;;;;;21.67;14.55;;;24.20;93.20;;;;;;5029732;28;20038;-76
2023/09/02 05:17:58;;;;;;;29.08;15.90;;;22.70;93.70;;;;;;5029634;28;20072;-76
2023/09/02 05:20:25;;;;;;;23.98;15.27;;;21.80;95.70;;;;;;5011761;28;20053;-75
2023/09/02 05:22:50;;;;;;;26.02;17.25;;;21.60;97.80;;;;;;5011062;28;20056;-76
2023/09/02 05:25:16;;;;;;;26.35;16.50;;;21.40;99.00;;;;;;5010551;28;20063;-76
2023/09/02 05:27:42;;;;;;;23.30;15.52;;;21.40;99.90;;;;;;5011735;28;20583;-76
2023/09/02 05:30:09;;;;;;;24.50;13.68;;;21.30;99.90;;;;;;5029435;28;20021;-77
2023/09/02 05:32:34;;;;;;;22.80;13.55;;;21.30;99.90;;;;;;5030651;28;20431;-77
2023/09/02 05:35:00;;;;;;;27.02;12.57;;;21.20;99.90;;;;;;5030340;28;20018;-77
2023/09/02 05:37:26;;;;;;;19.00;11.70;;;21.10;99.90;;;;;;5030777;28;20036;-77
2023/09/02 05:39:52;;;;;;;19.92;9.35;;;21.10;99.90;;;;;;5031077;28;20029;-76
2023/09/02 05:42:18;;;;;;;16.33;9.35;;;21.30;99.90;;;;;;5032093;28;20032;-76
2023/09/02 05:44:43;;;;;;;22.30;11.70;;;21.40;99.90;;;;;;5033194;28;20362;-76
2023/09/02 05:47:09;;;;;;;22.85;10.65;;;21.60;99.90;;;;;;5030896;28;20041;-76
2023/09/02 05:49:37;;;;;;;24.65;11.18;;;21.40;99.90;;;;;;5031622;28;20037;-76
2023/09/02 05:52:04;;;;;;;27.42;12.32;;;21.50;99.90;;;;;;5031201;28;20433;-75
2023/09/02 05:54:30;;;;;;;22.83;12.38;;;21.50;99.90;;;;;;5033915;28;20025;-76
2023/09/02 05:56:56;;;;;;;21.92;12.50;;;21.70;99.90;;;;;;5034750;28;20032;-76
2023/09/02 05:59:22;;;;;;;17.38;11.25;;;21.80;99.90;;;;;;5034323;28;20021;-76
2023/09/02 06:01:48;;;;;;;27.25;14.20;;;21.60;99.90;;;;;;5034565;28;20029;-77
2023/09/02 06:04:13;;;;;;;26.55;14.18;;;21.70;99.90;;;;;;5034373;28;20421;-75
2023/09/02 06:06:39;;;;;;;27.60;14.45;;;21.70;99.90;;;;;;5034588;28;20065;-76
2023/09/02 06:09:05;;;;;;;25.80;15.27;;;21.80;99.90;;;;;;5034266;28;20219;-76
2023/09/02 06:11:31;;;;;;;25.20;16.52;;;22.10;99.90;;;;;;5034891;28;20392;-76
2023/09/02 06:13:57;;;;;;;29.67;15.48;;;22.20;99.90;;;;;;5034124;28;20035;-76
2023/09/02 06:16:22;;;;;;;26.58;14.15;;;22.40;99.90;;;;;;5034121;28;20029;-77
2023/09/02 06:18:48;;;;;;;26.60;15.27;;;22.50;99.90;;;;;;5034138;28;20033;-77
2023/09/02 06:21:14;;;;;;;21.80;12.98;;;22.60;99.90;;;;;;5020952;28;20439;-76
2023/09/02 06:23:43;;;;;;;26.95;14.20;;;22.80;99.90;;;;;;5027965;28;20033;-76
2023/09/02 06:26:08;;;;;;;22.83;12.23;;;23.00;99.90;;;;;;5033848;28;20041;-76
2023/09/02 06:28:34;;;;;;;27.95;12.70;;;23.20;99.90;;;;;;5034075;28;20029;-77
2023/09/02 06:31:08;;;;;;;19.48;10.63;;;23.20;99.90;;;;;;5034084;28;20108;-77
2023/09/02 06:33:34;;;;;;;21.13;11.40;;;23.40;99.70;;;;;;5028379;28;20056;-76
2023/09/02 06:36:07;;;;;;;19.33;9.77;;;23.00;98.80;;;;;;5033663;28;20469;-76
2023/09/02 06:38:33;;;;;;;19.17;10.65;;;23.40;99.70;;;;;;5033458;28;20116;-76
2023/09/02 06:40:59;;;;;;;18.27;10.30;;;23.40;99.90;;;;;;5034115;28;20421;-77
2023/09/02 06:43:25;;;;;;;21.65;10.48;;;23.00;99.90;;;;;;5033541;28;20029;-76
2023/09/02 06:45:51;;;;;;;16.02;10.13;;;23.10;99.90;;;;;;5033826;28;20029;-76
2023/09/02 06:48:16;;;;;;;17.40;9.98;;;22.80;99.90;;;;;;5033324;28;20508;-75
2023/09/02 06:50:46;;;;;;;18.30;9.98;;;23.00;99.90;;;;;;5033942;28;20475;-76
2023/09/02 06:53:12;;;;;;;19.17;10.88;;;23.40;99.90;;;;;;5033425;28;20025;-76
2023/09/02 06:55:37;;;;;;;17.50;11.23;;;23.60;99.90;;;;;;5037080;28;20029;-76
2023/09/02 06:58:03;;;;;;;29.15;12.57;;;23.70;99.90;;;;;;5046872;28;20029;-76
2023/09/02 07:00:29;;;;;;;20.42;11.95;;;24.00;99.90;;;;;;5041605;28;20083;-76
2023/09/02 07:02:55;;;;;;;20.02;11.02;;;24.10;99.20;;;;;;5004731;28;20042;-75
2023/09/02 07:05:21;;;;;;;23.80;12.48;;;23.90;98.30;;;;;;5028873;28;20080;-76
2023/09/02 07:07:47;;;;;;;19.42;11.48;;;23.90;98.00;;;;;;5033075;28;20052;-76
2023/09/02 07:10:13;;;;;;;26.60;11.68;;;23.90;98.20;;;;;;5015408;28;20040;-75
2023/09/02 07:12:38;;;;;;;20.02;10.25;;;23.70;96.70;;;;;;5012160;28;20022;-75
2023/09/02 07:15:05;;;;;;;15.50;7.63;;;24.00;97.40;;;;;;5026814;28;20389;-75
2023/09/02 07:17:30;;;;;;;23.08;8.18;;;24.30;96.80;;;;;;5013611;28;20026;-75
2023/09/02 07:19:56;;;;;;;14.13;7.43;;;24.40;96.70;;;;;;5026472;28;20464;-76
2023/09/02 07:22:22;;;;;;;16.20;8.50;;;24.40;95.40;;;;;;5033466;28;20029;-76
2023/09/02 07:24:48;;;;;;;16.05;9.20;;;24.60;95.80;;;;;;5033044;28;20124;-76
2023/09/02 07:27:13;;;;;;;16.48;8.25;;;24.80;95.60;;;;;;5032784;28;20400;-75
2023/09/02 07:29:39;;;;;;;12.25;7.18;;;25.00;95.50;;;;;;5032693;28;20021;-75
2023/09/02 07:32:05;;;;;;;14.20;8.85;;;25.30;95.30;;;;;;5032906;28;20405;-75
2023/09/02 07:34:37;;;;;;;15.13;7.50;;;25.20;94.10;;;;;;5032626;28;20036;-77
2023/09/02 07:37:03;;;;;;;12.10;7.60;;;25.30;94.60;;;;;;5027047;28;20033;-77
2023/09/02 07:39:29;;;;;;;23.95;7.38;;;25.30;93.70;;;;;;5032072;28;20464;-77
2023/09/02 07:41:55;;;;;;;12.68;6.60;;;25.60;93.90;;;;;;5032297;28;20026;-77
2023/09/02 07:44:20;;;;;;;13.75;6.93;;;25.40;93.60;;;;;;5032558;28;20092;-77
2023/09/02 07:46:46;;;;;;;13.68;7.20;;;25.80;93.50;;;;;;5031945;28;20077;-77
2023/09/02 07:49:12;;;;;;;10.20;7.07;;;25.80;93.10;;;;;;5032449;28;20035;-76
2023/09/02 07:51:38;;;;;;;13.32;7.15;;;26.10;92.50;;;;;;5032211;28;20029;-77
2023/09/02 07:54:04;;;;;;;14.77;7.55;;;26.10;92.60;;;;;;5032592;28;20021;-77
2023/09/02 07:56:29;;;;;;;10.63;6.10;;;26.20;92.60;;;;;;5032612;28;20029;-75
2023/09/02 07:58:55;;;;;;;12.52;6.78;;;26.20;92.40;;;;;;5032335;28;20057;-75
2023/09/02 08:01:21;;;;;;;9.20;6.22;;;25.60;91.70;;;;;;5032213;28;20036;-76
2023/09/02 08:03:47;;;;;;;12.30;7.47;;;25.90;92.10;;;;;;5032290;28;20017;-76
2023/09/02 08:06:12;;;;;;;9.10;7.05;;;25.70;91.80;;;;;;5032164;28;20036;-76
2023/09/02 08:08:38;;;;;;;9.63;6.75;;;26.00;92.00;;;;;;5032272;28;20037;-76
2023/09/02 08:11:05;;;;;;;34.38;6.80;;;26.30;91.10;;;;;;5032175;28;20025;-77
2023/09/02 08:13:32;;;;;;;8.90;5.60;;;26.50;91.70;;;;;;5032059;28;20021;-76
2023/09/02 08:15:58;;;;;;;8.23;5.45;;;26.50;90.60;;;;;;5031690;28;20065;-76
2023/09/02 08:18:24;;;;;;;11.32;5.32;;;26.30;90.90;;;;;;5032068;28;20377;-76
2023/09/02 08:20:50;;;;;;;6.40;4.20;;;26.60;90.80;;;;;;5031691;28;20022;-76
2023/09/02 08:23:16;;;;;;;6.43;4.30;;;26.70;87.40;;;;;;5032297;28;20435;-75
2023/09/02 08:25:41;;;;;;;7.03;4.47;;;26.90;89.30;;;;;;5031794;28;20407;-76
2023/09/02 08:28:07;;;;;;;8.32;4.47;;;27.00;88.40;;;;;;5032168;28;20132;-76
2023/09/02 08:30:33;;;;;;;5.97;4.03;;;27.00;88.10;;;;;;5031585;28;20021;-75
2023/09/02 08:32:59;;;;;;;7.18;4.53;;;27.10;89.20;;;;;;5032107;28;20034;-76
2023/09/02 08:35:24;;;;;;;7.65;4.47;;;27.10;86.10;;;;;;5013698;28;20108;-76
2023/09/02 08:37:51;;;;;;;8.32;4.60;;;27.10;86.30;;;;;;5031945;28;20037;-77
2023/09/02 08:40:17;;;;;;;6.10;4.25;;;27.30;85.20;;;;;;5031803;28;20061;-76
2023/09/02 08:42:44;;;;;;;9.30;4.32;;;27.30;87.20;;;;;;5013883;28;20041;-76
2023/09/02 08:45:11;;;;;;;5.55;3.78;;;27.30;83.90;;;;;;5031343;28;20060;-76
2023/09/02 08:47:44;;;;;;;7.97;4.28;;;27.40;83.40;;;;;;5031417;28;20121;-77
2023/09/02 08:50:11;;;;;;;4.13;3.20;;;27.50;81.30;;;;;;5031323;28;20056;-77
2023/09/02 08:52:37;;;;;;;4.75;2.80;;;27.30;81.30;;;;;;5031585;28;20060;-77
2023/09/02 08:55:04;;;;;;;2.47;2.28;;;27.50;79.50;;;;;;5031642;28;20038;-77
2023/09/02 08:57:30;;;;;;;4.90;2.60;;;27.40;77.60;;;;;;5031457;28;20064;-77
2023/09/02 08:59:56;;;;;;;4.57;3.05;;;27.60;78.20;;;;;;5031417;28;20498;-77
2023/09/02 09:02:22;;;;;;;4.78;3.47;;;27.50;79.20;;;;;;5031469;28;20025;-76
2023/09/02 09:04:48;;;;;;;5.10;3.30;;;27.80;81.90;;;;;;5031562;28;20467;-77
2023/09/02 09:07:17;;;;;;;4.35;3.47;;;27.70;76.80;;;;;;5031303;28;20401;-76
2023/09/02 09:09:45;;;;;;;3.72;3.30;;;27.60;81.00;;;;;;5031057;28;20038;-76
2023/09/02 09:12:13;;;;;;;4.85;3.50;;;27.90;82.80;;;;;;5031529;28;20033;-77
2023/09/02 09:14:45;;;;;;;3.97;2.65;;;28.10;78.80;;;;;;5031152;28;20029;-76
2023/09/02 09:17:13;;;;;;;4.32;3.20;;;28.00;76.40;;;;;;5031685;28;20107;-76
2023/09/02 09:19:40;;;;;;;3.53;2.88;;;28.10;77.90;;;;;;5031384;28;20385;-76
2023/09/02 09:22:05;;;;;;;3.35;2.53;;;27.80;75.00;;;;;;5031821;28;20109;-76
2023/09/02 09:24:31;;;;;;;3.92;3.03;;;27.90;75.80;;;;;;5030996;28;20100;-77
2023/09/02 09:26:59;;;;;;;5.50;3.08;;;28.20;79.20;;;;;;5031707;28;20053;-75
2023/09/02 09:29:25;;;;;;;3.35;2.42;;;28.30;87.00;;;;;;5034461;28;20030;-75
2023/09/02 09:32:06;;;;;;;5.03;2.95;;;;;;;;;;5045343;28;20036;-76
2023/09/02 09:34:39;;;;;;;4.03;2.47;;;28.50;97.20;;;;;;5036619;28;20030;-75
2023/09/02 09:37:06;;;;;;;3.10;2.25;;;;;;;;;;5034257;28;20392;-76
2023/09/02 09:39:46;;;;;;;2.80;2.30;;;28.80;87.30;;;;;;5035049;28;20542;-76
2023/09/02 09:42:14;;;;;;;4.20;2.75;;;28.50;85.40;;;;;;5034941;28;20052;-76
2023/09/02 09:45:08;;;;;;;3.58;2.40;;;28.60;88.10;;;;;;5047658;28;20034;-75
2023/09/02 09:47:35;;;;;;;4.97;2.90;;;;;;;;;;4934606;29;20063;-76
2023/09/02 09:50:12;;;;;;;2.65;2.17;;;28.60;77.00;;;;;;4934629;29;20028;-74
2023/09/02 09:52:38;;;;;;;3.15;2.38;;;28.70;78.40;;;;;;4933991;29;20103;-73
2023/09/02 09:55:04;;;;;;;18.55;2.58;;;28.70;79.00;;;;;;4935128;29;20059;-75
2023/09/02 09:57:30;;;;;;;3.50;2.60;;;28.40;79.30;;;;;;4934870;29;20039;-74
2023/09/02 09:59:57;;;;;;;4.55;1.95;;;28.60;77.80;;;;;;4934649;29;20579;-74
2023/09/02 10:02:23;;;;;;;1.52;1.40;;;28.60;76.80;;;;;;4934154;29;20035;-74
2023/09/02 10:04:57;;;;;;;3.38;1.70;;;28.60;74.20;;;;;;4934614;29;20388;-72
2023/09/02 10:07:25;;;;;;;1.60;1.20;;;28.40;73.90;;;;;;4935262;29;20054;-74
2023/09/02 10:09:56;;;;;;;1.33;1.20;;;28.40;73.30;;;;;;4934178;28;20032;-73
2023/09/02 10:12:22;;;;;;;2.17;1.52;;;28.20;75.40;;;;;;4934966;29;20035;-72
2023/09/02 10:14:49;;;;;;;4.22;2.28;;;28.50;75.20;;;;;;4934407;29;20028;-74
2023/09/02 10:17:16;;;;;;;3.70;2.38;;;28.50;75.30;;;;;;4936470;29;20043;-73
2023/09/02 10:19:44;;;;;;;3.67;2.28;;;28.50;76.60;;;;;;4934620;29;20534;-74
2023/09/02 10:22:21;;;;;;;3.88;1.90;;;28.40;75.40;;;;;;4935101;29;20093;-73
2023/09/02 10:24:59;;;;;;;4.15;2.63;;;28.40;73.20;;;;;;5019169;28;20033;-75
2023/09/02 10:27:26;;;;;;;3.83;2.50;;;28.60;75.00;;;;;;5033826;28;20041;-73
2023/09/02 10:29:57;;;;;;;4.63;2.70;;;28.50;76.00;;;;;;5034135;28;20021;-77
2023/09/02 10:32:33;;;;;;;6.25;2.75;;;;;;;;;;5033999;28;20053;-72
2023/09/02 10:35:09;;;;;;;2.85;2.35;;;28.90;82.40;;;;;;5033777;28;20526;-72
2023/09/02 10:37:43;;;;;;;3.85;3.08;;;28.60;79.00;;;;;;5033942;28;20100;-73
2023/09/02 10:40:14;;;;;;;4.53;3.10;;;28.60;79.70;;;;;;5033645;28;20052;-72
2023/09/02 10:42:41;;;;;;;5.60;3.05;;;28.40;79.60;;;;;;5033591;28;20029;-74
2023/09/02 10:45:07;;;;;;;6.68;3.30;;;28.50;80.40;;;;;;5033937;28;20045;-72
2023/09/02 10:47:33;;;;;;;6.80;3.10;;;28.60;80.60;;;;;;5033707;28;20052;-77
2023/09/02 10:49:59;;;;;;;6.38;3.28;;;28.30;79.80;;;;;;5033925;28;20029;-75
2023/09/02 10:52:25;;;;;;;4.60;2.85;;;28.40;79.70;;;;;;5033696;28;20021;-75
2023/09/02 10:55:03;;;;;;;6.53;3.00;;;28.50;82.50;;;;;;5033247;28;20033;-73
2023/09/02 10:57:31;;;;;;;4.80;3.10;;;28.50;81.40;;;;;;5033254;28;20029;-74
2023/09/02 11:00:29;;;;;;;3.67;2.78;;;28.70;82.00;;;;;;5033250;28;20037;-73
2023/09/02 11:02:58;;;;;;;3.88;2.85;;;28.50;79.60;;;;;;4934239;29;20048;-74
2023/09/02 11:05:27;;;;;;;3.65;2.70;;;28.60;82.30;;;;;;4933693;29;20455;-72
2023/09/02 11:07:56;;;;;;;5.05;2.63;;;28.70;81.40;;;;;;4933869;29;20048;-73
2023/09/02 11:10:42;;;;;;;3.75;2.55;;;28.80;70.40;;;;;;4934269;29;20028;-74
2023/09/02 11:13:08;;;;;;;5.00;2.85;;;28.80;70.90;;;;;;4933503;29;20031;-74
2023/09/02 11:15:35;;;;;;;5.28;2.70;;;28.60;70.70;;;;;;4934249;29;20043;-73
2023/09/02 11:18:39;;;;;;;2.88;2.35;;;28.40;70.20;;;;;;4933414;29;20457;-75
2023/09/02 11:21:06;;;;;;;3.78;2.70;;;28.50;69.50;;;;;;4845177;29;20215;-73
2023/09/02 11:23:35;;;;;;;4.38;2.67;;;28.60;71.10;;;;;;4862902;29;20049;-72
2023/09/02 11:26:05;;;;;;;4.28;2.67;;;28.70;71.50;;;;;;4858767;29;20077;-76
2023/09/02 11:28:31;;;;;;;4.63;2.78;;;28.80;71.50;;;;;;4858341;29;20093;-73
2023/09/02 11:31:14;;;;;;;2.72;2.20;;;28.80;71.00;;;;;;4858851;29;20081;-76
2023/09/02 11:33:46;;;;;;;3.47;2.63;;;28.80;69.00;;;;;;4858598;29;20550;-73
2023/09/02 11:36:13;;;;;;;;;;;28.40;70.60;;;;;;4858826;29;20042;-75
2023/09/02 11:38:39;;;;;;;4.35;2.70;;;28.60;72.90;;;;;;4896397;29;19946;-72
2023/09/02 11:41:07;;;;;;;5.15;3.20;;;28.40;71.00;;;;;;4933272;29;20039;-75
2023/09/02 11:43:34;;;;;;;4.45;2.72;;;28.50;70.80;;;;;;4932869;28;20267;-72
2023/09/02 11:46:02;;;;;;;6.95;2.83;;;28.60;70.80;;;;;;4933284;29;20039;-73
2023/09/02 11:48:29;;;;;;;3.78;3.08;;;28.60;70.20;;;;;;4933340;29;20047;-72
2023/09/02 11:50:58;;;;;;;4.50;3.00;;;28.70;72.10;;;;;;4932112;29;20071;-72
2023/09/02 11:53:28;;;;;;;5.53;3.00;;;28.40;70.10;;;;;;4933525;29;20047;-73
2023/09/02 11:55:55;;;;;;;4.43;3.28;;;28.50;70.60;;;;;;4956894;28;20440;-72
2023/09/02 11:58:21;;;;;;;3.35;2.75;;;28.70;72.40;;;;;;5031930;28;20025;-74
2023/09/02 12:00:46;;;;;;;4.03;2.67;;;28.80;71.50;;;;;;5032360;28;20030;-72
2023/09/02 12:03:27;;;;;;;3.33;2.60;;;28.90;71.40;;;;;;5032111;28;20995;-76
2023/09/02 12:05:59;;;;;;;6.75;3.15;;;28.90;67.60;;;;;;5032359;28;20017;-72
2023/09/02 12:08:26;;;;;;;4.90;2.88;;;28.80;67.70;;;;;;5031625;28;20080;-72
2023/09/02 12:10:52;;;;;;;4.35;2.63;;;28.80;68.80;;;;;;5032321;28;20017;-72
2023/09/02 12:13:18;;;;;;;3.40;2.58;;;28.70;66.80;;;;;;5031953;28;20379;-72
2023/09/02 12:15:49;;;;;;;4.00;2.85;;;28.60;67.10;;;;;;5032179;28;20037;-73
2023/09/02 12:18:16;;;;;;;5.68;2.50;;;28.60;66.70;;;;;;5031868;28;20029;-74
2023/09/02 12:20:42;;;;;;;4.55;3.05;;;28.70;68.20;;;;;;5032031;28;20036;-72
2023/09/02 12:23:08;;;;;;;5.72;3.15;;;28.60;65.20;;;;;;5032080;28;20021;-72
2023/09/02 12:25:35;;;;;;;5.65;3.03;;;28.70;67.00;;;;;;5031852;28;20065;-73
2023/09/02 12:28:15;;;;;;;6.55;3.05;;;28.70;66.80;;;;;;5035291;28;20052;-73
2023/09/02 12:30:46;;;;;;;9.52;2.83;;;28.70;66.10;;;;;;5031484;28;20032;-72
2023/09/02 12:33:15;;;;;;;6.83;3.07;;;28.80;68.00;;;;;;5031740;28;20026;-73
2023/09/02 12:35:48;;;;;;;4.00;2.65;;;28.90;65.30;;;;;;5031722;28;20022;-72
2023/09/02 12:38:14;;;;;;;5.40;3.05;;;28.90;67.00;;;;;;5031576;28;20034;-72
2023/09/02 12:40:52;;;;;;;4.88;3.10;;;28.80;67.20;;;;;;5031900;28;20029;-73
2023/09/02 12:43:27;;;;;;;5.82;3.60;;;28.70;67.50;;;;;;5030869;28;20423;-72